London-Corbin Arpt-Magee Field (LOZ)

 

Airport Diagram
No Airport Diagram Available
Current Weather/Forecast (LIFR Conditions)
METAR KLOZ 211453Z AUTO 25005KT 1 1/2SM -RA BR OVC003 03/02 A2996 RMK AO2 RAB45 SLP151 P0000 60000 T00280022 51003
TAF KLOZ 211447Z 2115/2212 23007KT 3SM BR BKN003 OVC006 FM211530 25008KT P6SM SCT003 OVC007 FM211900 26009KT P6SM BKN015 FM212200 VRB05KT P6SM BKN080 FM221000 00000KT P6SM BKN030

Airport Information

All Charts
General
Chart Name View
TAKEOFF MINIMUMS
ALTERNATE MINIMUMS
TAKEOFF MINIMUMS
ALTERNATE MINIMUMS

Approaches
Chart Name Download
ILS OR LOC RWY 06
RNAV (GPS) RWY 06
RNAV (GPS) RWY 24
VOR RWY 06
ILS OR LOC RWY 06
RNAV (GPS) RWY 06
RNAV (GPS) RWY 24
VOR RWY 06


Airport Statistics
Departures Arrivals Local
All Collected Stats since June 2016: 30 32 2
2021 Stats: 1 0 0
January Stats: 1 0 0

Inbound Traffic (Arrivals) - 0

No inbound traffic.


Outbound Traffic (Departures) - 0

No outbound traffic.


Local Traffic (Pattern) - 0

No local traffic.